Time;durP1;ratioP1;P1;durP2;ratioP2;P2;SDS_P1;SDS_P2;PMS_P1;PMS_P2;Temp;Humidity;BMP_temperature;BMP_pressure;BME280_temperature;BME280_humidity;BME280_pressure;Samples;Min_cycle;Max_cycle;Signal;HPM_P1;HPM_P2
2021/05/06 00:01:50;;;;;;;;;;;;;;;;;;4303235;33;20465;-84
2021/05/06 00:32:33;;;;;;;;;;;;;;;;;;4313610;33;20480;-84
2021/05/06 00:35:03;;;;;;;;;;;;;;;;;;4303022;33;19966;-84
2021/05/06 00:37:43;;;;;;;;;;;;;;;;;;4311976;33;19960;-83
2021/05/06 01:09:50;;;;;;;;;;;;;;;;;;4306113;33;19982;-84
2021/05/06 01:12:37;;;;;;;;;;;;;;;;;;4308831;33;19999;-85
2021/05/06 01:15:23;;;;;;;;;;;;;;;;;;4304859;33;20130;-84
2021/05/06 01:18:10;;;;;;;;;;;;;;;;;;4310947;33;20029;-84
2021/05/06 01:20:40;;;;;;;;;;;;;;;;;;4307858;33;20423;-83
2021/05/06 01:23:28;;;;;;;;;;;;;;;;;;4304289;33;20010;-84
2021/05/06 01:26:19;;;;;;;;;;;;;;;;;;4304814;33;20300;-84
2021/05/06 01:28:55;;;;;;;;;;;;;;;;;;4308818;33;19987;-84
2021/05/06 01:31:48;;;;;;;;;;;;;;;;;;4314370;33;19999;-84
2021/05/06 01:34:22;;;;;;;;;;;;;;;;;;4321130;33;20371;-84
2021/05/06 01:37:06;;;;;;;;;;;;;;;;;;4309352;33;20384;-83
2021/05/06 01:42:48;;;;;;;;;;;;;;;;;;4303696;33;20042;-84
2021/05/06 01:46:29;;;;;;;;;;;;;;;;;;4310539;33;19966;-84
2021/05/06 01:57:57;;;;;;;;;;;;;;;;;;4315747;33;20018;-83
2021/05/06 02:00:52;;;;;;;;;;;;;;;;;;4302524;33;20766;-85
2021/05/06 02:03:23;;;;;;;;;;;;;;;;;;4302061;33;19986;-84
2021/05/06 02:05:53;;;;;;;;;;;;;;;;;;4316622;33;19978;-84
2021/05/06 02:08:25;;;;;;;;;;;;;;;;;;4306433;33;19964;-84
2021/05/06 02:11:13;;;;;;;;;;;;;;;;;;4303426;33;20010;-84
2021/05/06 02:13:45;;;;;;;;;;;;;;;;;;4305462;33;20038;-83
2021/05/06 02:16:39;;;;;;;;;;;;;;;;;;4313513;33;20328;-83
2021/05/06 02:19:09;;;;;;;;;;;;;;;;;;4307370;33;20019;-84
2021/05/06 02:21:40;;;;;;;;;;;;;;;;;;4303951;33;20502;-84
2021/05/06 02:24:26;;;;;;;;;;;;;;;;;;4320361;33;19999;-84
2021/05/06 02:27:12;;;;;;;;;;;;;;;;;;4310350;33;21180;-84
2021/05/06 02:29:41;;;;;;;;;;;;;;;;;;4301230;33;19981;-84
2021/05/06 02:32:12;;;;;;;;;;;;;;;;;;4305461;33;19972;-83
2021/05/06 02:34:40;;;;;;;;;;;;;;;;;;4312576;33;20034;-85
2021/05/06 02:37:27;;;;;;;;;;;;;;;;;;4320309;33;19975;-84
2021/05/06 02:40:13;;;;;;;;;;;;;;;;;;4306022;33;19971;-84
2021/05/06 02:42:43;;;;;;;;;;;;;;;;;;4307748;33;20022;-84
2021/05/06 02:45:13;;;;;;;;;;;;;;;;;;4305968;33;20292;-83
2021/05/06 02:48:00;;;;;;;;;;;;;;;;;;4309449;33;19995;-84
2021/05/06 02:50:52;;;;;;;;;;;;;;;;;;4303709;33;20058;-83
2021/05/06 02:53:25;;;;;;;;;;;;;;;;;;4316466;33;19975;-84
2021/05/06 02:56:25;;;;;;;;;;;;;;;;;;4314896;33;20464;-84
2021/05/06 03:04:50;;;;;;;;;;;;;;;;;;4315734;33;20308;-83
2021/05/06 03:07:22;;;;;;;;;;;;;;;;;;4308911;33;20033;-84
2021/05/06 03:22:52;;;;;;;;;;;;;;;;;;4316110;33;19971;-95
2021/05/06 03:25:36;;;;;;;;;;;;;;;;;;4296368;33;20007;-96
2021/05/06 03:28:49;;;;;;;;;;;;;;;;;;;;;
2021/05/06 03:35:10;;;;;;;;;;;;;;;;;;4300262;33;19996;-95
2021/05/06 03:45:48;;;;;;;;;;;;;;;;;;4311726;33;19956;-96
2021/05/06 04:37:21;;;;;;;;;;;;;;;;;;4315701;33;20003;-96
2021/05/06 04:54:03;;;;;;;;;;;;;;;;;;4312827;33;19967;-95
2021/05/06 04:57:40;;;;;;;;;;;;;;;;;;4304810;33;19964;-96
2021/05/06 05:07:27;;;;;;;;;;;;;;;;;;4303543;33;20298;-96
2021/05/06 05:10:49;;;;;;;;;;;;;;;;;;4248415;33;19980;-95
2021/05/06 05:23:26;;;;;;;;;;;;;;;;;;4246119;33;19959;-96
2021/05/06 05:26:46;;;;;;;;;;;;;;;;;;4293984;33;19971;-96
2021/05/06 05:29:44;;;;;;;;;;;;;;;;;;4289945;33;19963;-96
2021/05/06 05:32:46;;;;;;;;;;;;;;;;;;4288970;33;20004;-96
2021/05/06 05:36:14;;;;;;;;;;;;;;;;;;4309141;33;20133;-96
2021/05/06 05:55:19;;;;;;;;;;;;;;;;;;4307562;33;20024;-95
2021/05/06 05:58:06;;;;;;;;;;;;;;;;;;4307608;33;19973;-96
2021/05/06 06:01:29;;;;;;;;;;;;;;;;;;4303696;33;19983;-96
2021/05/06 06:04:30;;;;;;;;;;;;;;;;;;4310023;33;19987;-96
2021/05/06 06:07:45;;;;;;;;;;;;;;;;;;4307047;33;20071;-95
2021/05/06 06:10:42;;;;;;;;;;;;;;;;;;4311713;33;20000;-96
2021/05/06 06:14:05;;;;;;;;;;;;;;;;;;4262068;33;20020;-96
2021/05/06 06:17:30;;;;;;;;;;;;;;;;;;4315310;33;19967;-96
2021/05/06 06:21:28;;;;;;;;;;;;;;;;;;4313510;33;20628;-96
2021/05/06 06:24:40;;;;;;;;;;;;;;;;;;4308727;33;20044;-96
2021/05/06 06:27:24;;;;;;;;;;;;;;;;;;4309542;33;19959;-96
2021/05/06 06:30:24;;;;;;;;;;;;;;;;;;4311316;33;19969;-96
2021/05/06 06:33:30;;;;;;;;;;;;;;;;;;4314445;33;19980;-96
2021/05/06 06:36:39;;;;;;;;;;;;;;;;;;4314979;33;21438;-96
2021/05/06 06:39:54;;;;;;;;;;;;;;;;;;4317191;33;19976;-96
2021/05/06 06:42:51;;;;;;;;;;;;;;;;;;4310408;33;19959;-96
2021/05/06 06:46:16;;;;;;;;;;;;;;;;;;4296517;33;19957;-96
2021/05/06 06:49:17;;;;;;;;;;;;;;;;;;4303260;33;19983;-96
2021/05/06 06:52:07;;;;;;;;;;;;;;;;;;4306755;33;20008;-95
2021/05/06 06:55:16;;;;;;;;;;;;;;;;;;4306956;33;19992;-96
2021/05/06 06:57:44;;;;;;;;;;;;;;;;;;4305971;33;20524;-96
2021/05/06 07:00:23;;;;;;;;;;;;;;;;;;4293334;33;20060;-96
2021/05/06 07:03:13;;;;;;;;;;;;;;;;;;4306638;33;20031;-96
2021/05/06 07:06:12;;;;;;;;;;;;;;;;;;4310516;33;19968;-96
2021/05/06 07:09:34;;;;;;;;;;;;;;;;;;4312024;33;20042;-96
2021/05/06 07:12:30;;;;;;;;;;;;;;;;;;4310491;33;20036;-96
2021/05/06 07:14:59;;;;;;;;;;;;;;;;;;4298267;33;19961;-96
2021/05/06 07:17:38;;;;;;;;;;;;;;;;;;4292279;33;19979;-96
2021/05/06 07:20:25;;;;;;;;;;;;;;;;;;4305005;33;20411;-95
2021/05/06 07:23:34;;;;;;;;;;;;;;;;;;4304919;33;20020;-96
2021/05/06 07:26:25;;;;;;;;;;;;;;;;;;4307117;33;20027;-96
2021/05/06 07:28:58;;;;;;;;;;;;;;;;;;4304771;33;19957;-96
2021/05/06 07:31:32;;;;;;;;;;;;;;;;;;4303526;33;20330;-96
2021/05/06 07:34:30;;;;;;;;;;;;;;;;;;4300565;33;19994;-96
2021/05/06 07:37:20;;;;;;;;;;;;;;;;;;4302467;33;19968;-96
2021/05/06 07:40:10;;;;;;;;;;;;;;;;;;4304542;33;20023;-96
2021/05/06 07:42:42;;;;;;;;;;;;;;;;;;4295485;33;20000;-96
2021/05/06 07:45:38;;;;;;;;;;;;;;;;;;4313376;33;19983;-96
2021/05/06 07:48:43;;;;;;;;;;;;;;;;;;4302444;33;20039;-96
2021/05/06 07:51:48;;;;;;;;;;;;;;;;;;;;;
2021/05/06 07:55:02;;;;;;;;;;;;;;;;;;4266353;33;20005;-96
2021/05/06 07:58:20;;;;;;;;;;;;;;;;;;4263930;33;20073;-96
2021/05/06 08:02:15;;;;;;;;;;;;;;;;;;;;;
2021/05/06 08:18:34;;;;;;;;;;;;;;;;;;4294310;33;19964;-96
2021/05/06 08:21:27;;;;;;;;;;;;;;;;;;4304854;33;20218;-96
2021/05/06 08:24:40;;;;;;;;;;;;;;;;;;4292619;33;19964;-96
2021/05/06 08:27:39;;;;;;;;;;;;;;;;;;4311028;33;20321;-96
2021/05/06 08:34:03;;;;;;;;;;;;;;;;;;4273310;33;19976;-96
2021/05/06 08:40:40;;;;;;;;;;;;;;;;;;;;;
2021/05/06 08:44:15;;;;;;;;;;;;;;;;;;4239153;33;19986;-96
2021/05/06 08:48:01;;;;;;;;;;;;;;;;;;4219395;33;19991;-96
2021/05/06 08:56:58;;;;;;;;;;;;;;;;;;4698645;27;20604;-93
2021/05/06 08:59:59;;;;;;;;;;;;;;;;;;4306916;33;19988;-90
2021/05/06 09:02:52;;;;;;;;;;;;;;;;;;4312647;33;19978;-91
2021/05/06 09:09:31;;;;;;;;;;;;;;;;;;4267147;33;19968;-93
2021/05/06 09:15:16;;;;;;;;;;;;;;;;;;4297056;33;20167;-85
2021/05/06 09:21:47;;;;;;;;;;;;;;;;;;4270896;33;19960;-89
2021/05/06 09:25:05;;;;;;;;;;;;;;;;;;4209768;33;20031;-89
2021/05/06 09:28:15;;;;;;;;;;;;;;;;;;4242443;33;19954;-93
2021/05/06 09:37:09;;;;;;;;;;;;;;;;;;4463590;27;19998;-89
2021/05/06 09:40:17;;;;;;;;;;;;;;;;;;4256646;33;20388;-90
2021/05/06 09:56:40;;;;;;;;;;;;;;;;;;4186660;34;19966;-90
2021/05/06 09:59:17;;;;;;;;;;;;;;;;;;4193855;34;19966;-92
2021/05/06 10:05:19;;;;;;;;;;;;;;;;;;4260767;33;19968;-87
2021/05/06 10:08:09;;;;;;;;;;;;;;;;;;4266507;33;20012;-90
2021/05/06 10:11:12;;;;;;;;;;;;;;;;;;4261743;33;19972;-92
2021/05/06 10:25:02;;;;;;;;;;;;;;;;;;4124540;34;19970;-88
2021/05/06 10:27:54;;;;;;;;;;;;;;;;;;4181229;34;20021;-90
2021/05/06 10:40:50;;;;;;;;;;;;;;;;;;4263074;33;19980;-87
2021/05/06 10:50:54;;;;;;;;;;;;;;;;;;4322027;33;19944;-87
2021/05/06 11:07:26;;;;;;;;;;;;;;;;;;4212617;33;20090;-91
2021/05/06 11:10:27;;;;;;;;;;;;;;;;;;4197771;34;19994;-89
2021/05/06 11:15:50;;;;;;;;;;;;;;;;;;4220710;33;20530;-90
2021/05/06 11:18:26;;;;;;;;;;;;;;;;;;4242448;33;20036;-92
2021/05/06 11:27:26;;;;;;;;;;;;;;;;;;4259699;33;20092;-88
2021/05/06 11:30:36;;;;;;;;;;;;;;;;;;4217419;33;20013;-90
2021/05/06 11:33:10;;;;;;;;;;;;;;;;;;4214574;33;19997;-90
2021/05/06 11:42:42;;;;;;;;;;;;;;;;;;4184741;34;20171;-89
2021/05/06 11:45:37;;;;;;;;;;;;;;;;;;4166216;34;20022;-92
2021/05/06 11:48:32;;;;;;;;;;;;;;;;;;4173079;34;20030;-89
2021/05/06 11:51:41;;;;;;;;;;;;;;;;;;4180229;34;19985;-89
2021/05/06 11:54:18;;;;;;;;;;;;;;;;;;4200190;34;20150;-91
2021/05/06 11:56:59;;;;;;;;;;;;;;;;;;4183865;34;19971;-89
2021/05/06 11:59:29;;;;;;;;;;;;;;;;;;4183294;34;19977;-91
2021/05/06 12:02:00;;;;;;;;;;;;;;;;;;4173499;34;20366;-90
2021/05/06 12:13:58;;;;;;;;;;;;;;;;;;4280253;33;20544;-85
2021/05/06 12:17:03;;;;;;;;;;;;;;;;;;4280101;33;20065;-87
2021/05/06 12:20:03;;;;;;;;;;;;;;;;;;4280876;33;19967;-91
2021/05/06 12:22:52;;;;;;;;;;;;;;;;;;4227192;33;19992;-89
2021/05/06 12:25:37;;;;;;;;;;;;;;;;;;4265864;33;19972;-91
2021/05/06 12:29:01;;;;;;;;;;;;;;;;;;4224096;33;20005;-89
2021/05/06 12:32:03;;;;;;;;;;;;;;;;;;4232822;33;20025;-92
2021/05/06 12:41:07;;;;;;;;;;;;;;;;;;4251820;33;20140;-86
2021/05/06 12:46:47;;;;;;;;;;;;;;;;;;4270698;33;20008;-88
2021/05/06 12:49:39;;;;;;;;;;;;;;;;;;4300107;33;19953;-90
2021/05/06 12:58:19;;;;;;;;;;;;;;;;;;4305054;33;19963;-89
2021/05/06 13:01:14;;;;;;;;;;;;;;;;;;4310155;33;20288;-86
2021/05/06 13:03:52;;;;;;;;;;;;;;;;;;4285904;33;19968;-88
2021/05/06 13:13:22;;;;;;;;;;;;;;;;;;;;;
2021/05/06 13:16:24;;;;;;;;;;;;;;;;;;;;;
2021/05/06 13:19:42;;;;;;;;;;;;;;;;;;4245147;33;19973;-91
2021/05/06 13:22:34;;;;;;;;;;;;;;;;;;4308121;33;19976;-91
2021/05/06 13:25:10;;;;;;;;;;;;;;;;;;4298844;33;19986;-89
2021/05/06 13:28:14;;;;;;;;;;;;;;;;;;4286407;33;20466;-91
2021/05/06 13:36:56;;;;;;;;;;;;;;;;;;4247323;33;20051;-92
2021/05/06 13:45:54;;;;;;;;;;;;;;;;;;4280271;33;20149;-90
2021/05/06 13:51:49;;;;;;;;;;;;;;;;;;4302677;33;20111;-86
2021/05/06 13:57:04;;;;;;;;;;;;;;;;;;4291389;33;20027;-91
2021/05/06 14:00:04;;;;;;;;;;;;;;;;;;4244199;33;20015;-89
2021/05/06 14:05:45;;;;;;;;;;;;;;;;;;4231235;33;20012;-91
2021/05/06 14:08:58;;;;;;;;;;;;;;;;;;4237346;33;20101;-86
2021/05/06 14:11:50;;;;;;;;;;;;;;;;;;4255588;33;20031;-88
2021/05/06 14:14:35;;;;;;;;;;;;;;;;;;4247821;33;19993;-91
2021/05/06 14:17:06;;;;;;;;;;;;;;;;;;4218592;33;19999;-89
2021/05/06 14:23:04;;;;;;;;;;;;;;;;;;4253108;33;19976;-90
2021/05/06 14:25:48;;;;;;;;;;;;;;;;;;4294428;33;20337;-91
2021/05/06 14:28:27;;;;;;;;;;;;;;;;;;4296722;33;19964;-91
2021/05/06 14:31:26;;;;;;;;;;;;;;;;;;4288470;33;19964;-90
2021/05/06 14:34:23;;;;;;;;;;;;;;;;;;4288877;33;20188;-89
2021/05/06 14:37:07;;;;;;;;;;;;;;;;;;4298925;33;20154;-87
2021/05/06 14:39:55;;;;;;;;;;;;;;;;;;;;;
2021/05/06 14:42:39;;;;;;;;;;;;;;;;;;4303046;33;20043;-90
2021/05/06 14:48:44;;;;;;;;;;;;;;;;;;4311867;33;20011;-90
2021/05/06 14:55:13;;;;;;;;;;;;;;;;;;4243136;33;20417;-88
2021/05/06 14:57:57;;;;;;;;;;;;;;;;;;4239418;33;19985;-85
2021/05/06 15:00:37;;;;;;;;;;;;;;;;;;4250227;33;20021;-86
2021/05/06 15:03:24;;;;;;;;;;;;;;;;;;4232549;33;19961;-90
2021/05/06 15:06:03;;;;;;;;;;;;;;;;;;4250282;33;19965;-86
2021/05/06 15:09:04;;;;;;;;;;;;;;;;;;4239777;33;20054;-90
2021/05/06 15:11:40;;;;;;;;;;;;;;;;;;4241591;33;19972;-87
2021/05/06 15:14:25;;;;;;;;;;;;;;;;;;4241504;33;20003;-91
2021/05/06 15:17:09;;;;;;;;;;;;;;;;;;4250399;33;19980;-88
2021/05/06 15:19:57;;;;;;;;;;;;;;;;;;4238739;33;20049;-88
2021/05/06 15:22:45;;;;;;;;;;;;;;;;;;4266458;33;19957;-89
2021/05/06 15:25:28;;;;;;;;;;;;;;;;;;4283350;33;20012;-90
2021/05/06 15:28:33;;;;;;;;;;;;;;;;;;4243781;33;20672;-89
2021/05/06 15:31:06;;;;;;;;;;;;;;;;;;4266219;33;20107;-91
2021/05/06 15:33:34;;;;;;;;;;;;;;;;;;4259254;33;19991;-89
2021/05/06 15:42:22;;;;;;;;;;;;;;;;;;4282910;33;19993;-87
2021/05/06 15:45:10;;;;;;;;;;;;;;;;;;4275170;33;20319;-91
2021/05/06 15:48:18;;;;;;;;;;;;;;;;;;4241091;33;19958;-87
2021/05/06 15:51:19;;;;;;;;;;;;;;;;;;4185869;34;20388;-92
2021/05/06 16:04:15;;;;;;;;;;;;;;;;;;4220551;33;19957;-85
2021/05/06 16:07:04;;;;;;;;;;;;;;;;;;4208267;33;21765;-90
2021/05/06 16:10:00;;;;;;;;;;;;;;;;;;4222934;33;20010;-88
2021/05/06 16:15:37;;;;;;;;;;;;;;;;;;4177320;34;19967;-87
2021/05/06 16:18:07;;;;;;;;;;;;;;;;;;4200815;34;20088;-88
2021/05/06 16:20:43;;;;;;;;;;;;;;;;;;4194854;34;20307;-91
2021/05/06 16:23:38;;;;;;;;;;;;;;;;;;4214009;33;19981;-93
2021/05/06 16:26:19;;;;;;;;;;;;;;;;;;4202182;34;19962;-91
2021/05/06 16:29:15;;;;;;;;;;;;;;;;;;4235298;33;19985;-95
2021/05/06 16:31:57;;;;;;;;;;;;;;;;;;4258563;33;20097;-88
2021/05/06 16:34:47;;;;;;;;;;;;;;;;;;4238924;33;20199;-89
2021/05/06 16:50:10;;;;;;;;;;;;;;;;;;4309382;33;20007;-87
2021/05/06 16:56:15;;;;;;;;;;;;;;;;;;4282233;33;20116;-90
2021/05/06 16:59:22;;;;;;;;;;;;;;;;;;4243211;33;19965;-90
2021/05/06 17:24:46;;;;;;;;;;;;;;;;;;4246090;33;20053;-88
2021/05/06 17:53:38;;;;;;;;;;;;;;;;;;4304412;33;20926;-91
2021/05/06 19:31:22;;;;;;;;;;;;;;;;;;4337128;27;20020;-85
2021/05/06 19:33:50;;;;;;;;;;;;;;;;;;4324066;33;21384;-85
2021/05/06 19:36:20;;;;;;;;;;;;;;;;;;4331792;33;19963;-85
2021/05/06 19:38:50;;;;;;;;;;;;;;;;;;4331432;33;20110;-84
2021/05/06 19:41:26;;;;;;;;;;;;;;;;;;4333097;33;20011;-85
2021/05/06 19:43:58;;;;;;;;;;;;;;;;;;4335160;33;20018;-84
2021/05/06 19:48:58;;;;;;;;;;;;;;;;;;4337997;33;19979;-84
2021/05/06 19:51:28;;;;;;;;;;;;;;;;;;4335604;33;20010;-84
2021/05/06 19:54:01;;;;;;;;;;;;;;;;;;4327267;33;19991;-85
2021/05/06 19:56:31;;;;;;;;;;;;;;;;;;4333541;33;20847;-84
2021/05/06 19:59:01;;;;;;;;;;;;;;;;;;4339010;33;19948;-84
2021/05/06 20:01:29;;;;;;;;;;;;;;;;;;4332763;33;19983;-85
2021/05/06 20:03:57;;;;;;;;;;;;;;;;;;4334813;33;20020;-85
2021/05/06 20:06:27;;;;;;;;;;;;;;;;;;4313014;33;20440;-85
2021/05/06 20:08:58;;;;;;;;;;;;;;;;;;4337158;33;19960;-85
2021/05/06 20:11:28;;;;;;;;;;;;;;;;;;4313138;33;20323;-85
2021/05/06 20:13:59;;;;;;;;;;;;;;;;;;4328132;33;20001;-85
2021/05/06 20:16:29;;;;;;;;;;;;;;;;;;4337049;33;19975;-85
2021/05/06 20:19:00;;;;;;;;;;;;;;;;;;4339828;33;20007;-85
2021/05/06 20:21:52;;;;;;;;;;;;;;;;;;4313498;33;19967;-84
2021/05/06 20:24:20;;;;;;;;;;;;;;;;;;4335072;33;20439;-84
2021/05/06 20:26:51;;;;;;;;;;;;;;;;;;4337960;33;19967;-85
2021/05/06 20:29:22;;;;;;;;;;;;;;;;;;4337966;33;19959;-85
2021/05/06 20:31:52;;;;;;;;;;;;;;;;;;4334994;33;19968;-84
2021/05/06 20:34:22;;;;;;;;;;;;;;;;;;4337066;33;20003;-84
2021/05/06 20:36:53;;;;;;;;;;;;;;;;;;4324256;33;19964;-85
2021/05/06 20:39:24;;;;;;;;;;;;;;;;;;4329502;33;20015;-84
2021/05/06 20:41:58;;;;;;;;;;;;;;;;;;4318084;33;19998;-84
2021/05/06 20:44:34;;;;;;;;;;;;;;;;;;4337316;33;20003;-85
2021/05/06 20:47:09;;;;;;;;;;;;;;;;;;4332173;33;19956;-84
2021/05/06 20:49:39;;;;;;;;;;;;;;;;;;4327634;33;20003;-85
2021/05/06 20:52:09;;;;;;;;;;;;;;;;;;4330683;33;20026;-84
2021/05/06 20:54:39;;;;;;;;;;;;;;;;;;4333919;33;20021;-84
2021/05/06 20:57:10;;;;;;;;;;;;;;;;;;4333899;33;19967;-84
2021/05/06 20:59:41;;;;;;;;;;;;;;;;;;4330280;33;19974;-85
2021/05/06 21:02:11;;;;;;;;;;;;;;;;;;4327182;33;19952;-84
2021/05/06 21:04:41;;;;;;;;;;;;;;;;;;4335482;33;20020;-84
2021/05/06 21:07:11;;;;;;;;;;;;;;;;;;4335856;33;20007;-85
2021/05/06 21:09:39;;;;;;;;;;;;;;;;;;4329536;33;19948;-84
2021/05/06 21:12:09;;;;;;;;;;;;;;;;;;4330772;33;19994;-85
2021/05/06 21:14:40;;;;;;;;;;;;;;;;;;4334505;33;20369;-84
2021/05/06 21:17:11;;;;;;;;;;;;;;;;;;4330346;33;21951;-84
2021/05/06 21:19:42;;;;;;;;;;;;;;;;;;4317865;33;20511;-85
2021/05/06 21:22:12;;;;;;;;;;;;;;;;;;4332845;33;19994;-84
2021/05/06 21:24:45;;;;;;;;;;;;;;;;;;4337501;33;19978;-84
2021/05/06 21:27:15;;;;;;;;;;;;;;;;;;4315774;33;20347;-84
2021/05/06 21:29:48;;;;;;;;;;;;;;;;;;4328417;33;20002;-85
2021/05/06 21:32:18;;;;;;;;;;;;;;;;;;4329836;33;19970;-84
2021/05/06 21:34:49;;;;;;;;;;;;;;;;;;4336449;33;20424;-84
2021/05/06 21:37:19;;;;;;;;;;;;;;;;;;4329567;33;20047;-84
2021/05/06 21:39:49;;;;;;;;;;;;;;;;;;4330632;33;20012;-84
2021/05/06 21:42:22;;;;;;;;;;;;;;;;;;4333739;33;19960;-84
2021/05/06 21:44:55;;;;;;;;;;;;;;;;;;4334140;33;20323;-85
2021/05/06 21:47:28;;;;;;;;;;;;;;;;;;4327864;33;20314;-85
2021/05/06 21:50:00;;;;;;;;;;;;;;;;;;4331491;33;20034;-85
2021/05/06 21:52:33;;;;;;;;;;;;;;;;;;4332210;33;19996;-85
2021/05/06 21:55:03;;;;;;;;;;;;;;;;;;4326355;33;19991;-84
2021/05/06 21:57:33;;;;;;;;;;;;;;;;;;4329827;33;20047;-84
2021/05/06 22:00:03;;;;;;;;;;;;;;;;;;4334922;33;19994;-84
2021/05/06 22:02:34;;;;;;;;;;;;;;;;;;4334233;33;19964;-84
2021/05/06 22:05:05;;;;;;;;;;;;;;;;;;4339127;33;20476;-84
2021/05/06 22:07:36;;;;;;;;;;;;;;;;;;4335089;33;20019;-84
2021/05/06 22:10:04;;;;;;;;;;;;;;;;;;4336778;33;20045;-85
2021/05/06 22:12:34;;;;;;;;;;;;;;;;;;4335809;33;20354;-84
2021/05/06 22:15:04;;;;;;;;;;;;;;;;;;4338171;33;20018;-84
2021/05/06 22:17:32;;;;;;;;;;;;;;;;;;4319503;33;20013;-84
2021/05/06 22:20:02;;;;;;;;;;;;;;;;;;4334251;33;20575;-85
2021/05/06 22:22:32;;;;;;;;;;;;;;;;;;4332548;33;19971;-85
2021/05/06 22:25:00;;;;;;;;;;;;;;;;;;4317460;33;20003;-85
2021/05/06 22:27:31;;;;;;;;;;;;;;;;;;4325052;33;21289;-85
2021/05/06 22:30:05;;;;;;;;;;;;;;;;;;4325103;33;19999;-85
2021/05/06 22:32:36;;;;;;;;;;;;;;;;;;4331178;33;20302;-85
2021/05/06 22:35:06;;;;;;;;;;;;;;;;;;4336894;33;20115;-84
2021/05/06 22:37:38;;;;;;;;;;;;;;;;;;4323869;33;19952;-84
2021/05/06 22:40:08;;;;;;;;;;;;;;;;;;4329323;33;20368;-85
2021/05/06 22:42:39;;;;;;;;;;;;;;;;;;4334590;33;20584;-84
2021/05/06 22:45:09;;;;;;;;;;;;;;;;;;4322848;33;20548;-85
2021/05/06 22:47:37;;;;;;;;;;;;;;;;;;4325258;33;20376;-84
2021/05/06 22:50:07;;;;;;;;;;;;;;;;;;4331118;33;19990;-85
2021/05/06 22:52:36;;;;;;;;;;;;;;;;;;4332301;33;19959;-85
2021/05/06 22:55:06;;;;;;;;;;;;;;;;;;4334632;33;20044;-84
2021/05/06 22:57:36;;;;;;;;;;;;;;;;;;4330143;33;19964;-84
2021/05/06 23:00:08;;;;;;;;;;;;;;;;;;4333926;33;19972;-85
2021/05/06 23:02:38;;;;;;;;;;;;;;;;;;4331295;33;20040;-84
2021/05/06 23:05:08;;;;;;;;;;;;;;;;;;4331485;33;19956;-84
2021/05/06 23:07:45;;;;;;;;;;;;;;;;;;4333471;33;20025;-85
2021/05/06 23:10:15;;;;;;;;;;;;;;;;;;4338952;33;19999;-84
2021/05/06 23:12:45;;;;;;;;;;;;;;;;;;4338402;33;19979;-85
2021/05/06 23:15:15;;;;;;;;;;;;;;;;;;4330334;33;19956;-84
2021/05/06 23:17:46;;;;;;;;;;;;;;;;;;4334838;33;19971;-84
2021/05/06 23:20:16;;;;;;;;;;;;;;;;;;4336090;33;19984;-85
2021/05/06 23:22:46;;;;;;;;;;;;;;;;;;4336568;33;20362;-85
2021/05/06 23:25:17;;;;;;;;;;;;;;;;;;4334902;33;20369;-84
2021/05/06 23:27:47;;;;;;;;;;;;;;;;;;4332449;33;20011;-85
2021/05/06 23:30:17;;;;;;;;;;;;;;;;;;4336726;33;19995;-85
2021/05/06 23:32:47;;;;;;;;;;;;;;;;;;4336105;33;20055;-84
2021/05/06 23:35:17;;;;;;;;;;;;;;;;;;4325309;33;19963;-85
2021/05/06 23:37:47;;;;;;;;;;;;;;;;;;4315582;33;19968;-86
2021/05/06 23:40:18;;;;;;;;;;;;;;;;;;4334966;33;19948;-84
2021/05/06 23:42:48;;;;;;;;;;;;;;;;;;4334950;33;19963;-85
2021/05/06 23:45:21;;;;;;;;;;;;;;;;;;4332588;33;20062;-84
2021/05/06 23:47:53;;;;;;;;;;;;;;;;;;4327975;33;20469;-84
2021/05/06 23:50:24;;;;;;;;;;;;;;;;;;4329645;33;19956;-85
2021/05/06 23:52:54;;;;;;;;;;;;;;;;;;4337905;33;20033;-84
2021/05/06 23:55:42;;;;;;;;;;;;;;;;;;4314504;33;19992;-84
2021/05/06 23:58:12;;;;;;;;;;;;;;;;;;4327628;33;19988;-84
